createdAt,value
2022-12-31T00:00:10.744Z,1012.43
2022-12-31T00:00:36.900Z,1012.63
2022-12-31T00:00:56.835Z,1012.63
2022-12-31T00:01:28.585Z,1012.63
2022-12-31T00:02:00.572Z,1012.43
2022-12-31T00:02:32.447Z,1012.43
2022-12-31T00:03:04.474Z,1012.43
2022-12-31T00:03:36.721Z,1012.43
2022-12-31T00:04:08.950Z,1012.53
2022-12-31T00:04:36.862Z,1012.53
2022-12-31T00:04:56.480Z,1012.53
2022-12-31T00:05:29.122Z,1012.53
2022-12-31T00:06:00.704Z,1012.53
2022-12-31T00:06:32.381Z,1012.53
2022-12-31T00:07:04.503Z,1012.33
2022-12-31T00:08:08.910Z,1012.43
2022-12-31T00:08:37.068Z,1012.33
2022-12-31T00:08:56.387Z,1012.33
2022-12-31T00:09:29.032Z,1012.33
2022-12-31T00:10:01.060Z,1012.33
2022-12-31T00:10:32.468Z,1012.33
2022-12-31T00:11:04.301Z,1012.33
2022-12-31T00:11:36.684Z,1012.33
2022-12-31T00:12:08.859Z,1012.43
2022-12-31T00:12:36.829Z,1012.22
2022-12-31T00:12:56.518Z,1012.22
2022-12-31T00:13:28.644Z,1012.22
2022-12-31T00:14:00.614Z,1012.33
2022-12-31T00:14:32.282Z,1012.33
2022-12-31T00:15:06.107Z,1012.53
2022-12-31T00:15:36.844Z,1012.53
2022-12-31T00:16:11.976Z,1012.43
2022-12-31T00:16:37.002Z,1012.33
2022-12-31T00:16:56.592Z,1012.33
2022-12-31T00:17:28.633Z,1012.33
2022-12-31T00:18:00.511Z,1012.43
2022-12-31T00:18:32.491Z,1012.43
2022-12-31T00:19:04.442Z,1012.33
2022-12-31T00:19:36.730Z,1012.33
2022-12-31T00:20:09.484Z,1012.43
2022-12-31T00:20:36.885Z,1012.53
2022-12-31T00:20:56.844Z,1012.53
2022-12-31T00:21:28.760Z,1012.53
2022-12-31T00:22:00.570Z,1012.63
2022-12-31T00:22:32.401Z,1012.63
2022-12-31T00:23:04.403Z,1012.53
2022-12-31T00:23:36.656Z,1012.53
2022-12-31T00:24:08.957Z,1012.53
2022-12-31T00:24:36.716Z,1012.53
2022-12-31T00:24:56.585Z,1012.53
2022-12-31T00:25:29.011Z,1012.53
2022-12-31T00:26:00.448Z,1012.33
2022-12-31T00:26:32.366Z,1012.33
2022-12-31T00:27:04.271Z,1012.33
2022-12-31T00:27:36.554Z,1012.33
2022-12-31T00:28:09.225Z,1012.63
2022-12-31T00:28:36.772Z,1012.33
2022-12-31T00:28:56.405Z,1012.33
2022-12-31T00:29:28.635Z,1012.33
2022-12-31T00:30:04.798Z,1012.43
2022-12-31T00:30:32.496Z,1012.43
2022-12-31T00:31:04.400Z,1012.73
2022-12-31T00:31:36.853Z,1012.73
2022-12-31T00:32:08.923Z,1012.53
2022-12-31T00:32:37.103Z,1012.63
2022-12-31T00:32:56.517Z,1012.63
2022-12-31T00:33:28.732Z,1012.63
2022-12-31T00:34:00.591Z,1012.43
2022-12-31T00:34:32.379Z,1012.43
2022-12-31T00:35:05.460Z,1012.63
2022-12-31T00:35:36.529Z,1012.63
2022-12-31T00:36:08.908Z,1012.63
2022-12-31T00:36:36.798Z,1012.63
2022-12-31T00:36:56.401Z,1012.63
2022-12-31T00:37:28.667Z,1012.63
2022-12-31T00:38:00.505Z,1012.63
2022-12-31T00:38:32.309Z,1012.63
2022-12-31T00:39:04.324Z,1012.43
2022-12-31T00:39:36.526Z,1012.43
2022-12-31T00:40:09.376Z,1012.63
2022-12-31T00:40:37.221Z,1012.73
2022-12-31T00:40:56.873Z,1012.73
2022-12-31T00:41:29.225Z,1012.73
2022-12-31T00:42:02.687Z,1012.33
2022-12-31T00:42:33.737Z,1012.33
2022-12-31T00:43:04.281Z,1012.53
2022-12-31T00:43:36.567Z,1012.53
2022-12-31T00:44:08.844Z,1012.73
2022-12-31T00:44:37.357Z,1012.73
2022-12-31T00:44:56.805Z,1012.73
2022-12-31T00:45:31.617Z,1012.73
2022-12-31T00:46:00.549Z,1012.73
2022-12-31T00:46:32.472Z,1012.73
2022-12-31T00:47:04.324Z,1012.73
2022-12-31T00:47:36.695Z,1012.73
2022-12-31T00:48:08.903Z,1012.83
2022-12-31T00:48:36.871Z,1012.53
2022-12-31T00:48:56.557Z,1012.53
2022-12-31T00:49:28.699Z,1012.53
2022-12-31T00:50:01.091Z,1012.63
2022-12-31T00:50:32.802Z,1012.63
2022-12-31T00:51:04.305Z,1012.63
2022-12-31T00:51:36.634Z,1012.63
2022-12-31T00:52:08.892Z,1012.73
2022-12-31T00:52:36.938Z,1012.53
2022-12-31T00:52:56.417Z,1012.53
2022-12-31T00:53:28.633Z,1012.53
2022-12-31T00:54:00.526Z,1012.83
2022-12-31T00:54:32.382Z,1012.83
2022-12-31T00:55:05.376Z,1012.83
2022-12-31T00:55:36.682Z,1012.83
2022-12-31T00:56:08.864Z,1012.83
2022-12-31T00:56:37.190Z,1012.83
2022-12-31T00:56:56.302Z,1012.83
2022-12-31T00:57:28.886Z,1012.83
2022-12-31T00:58:00.605Z,1012.73
2022-12-31T00:58:32.262Z,1012.73
2022-12-31T00:59:04.488Z,1012.93
2022-12-31T00:59:37.356Z,1012.93
2022-12-31T01:00:10.252Z,1012.83
2022-12-31T01:00:37.187Z,1012.63
2022-12-31T01:00:57.073Z,1012.63
2022-12-31T01:01:28.901Z,1012.63
2022-12-31T01:02:00.612Z,1012.73
2022-12-31T01:02:32.375Z,1012.73
2022-12-31T01:03:04.443Z,1013.04
2022-12-31T01:03:36.648Z,1013.04
2022-12-31T01:04:08.955Z,1012.63
2022-12-31T01:04:36.778Z,1012.93
2022-12-31T01:04:56.736Z,1012.93
2022-12-31T01:05:28.992Z,1012.93
2022-12-31T01:06:00.591Z,1012.93
2022-12-31T01:06:32.241Z,1012.93
2022-12-31T01:07:04.455Z,1012.83
2022-12-31T01:07:36.894Z,1012.83
2022-12-31T01:08:08.736Z,1012.83
2022-12-31T01:08:36.778Z,1012.83
2022-12-31T01:08:56.353Z,1012.83
2022-12-31T01:09:28.682Z,1012.83
2022-12-31T01:10:01.134Z,1012.93
2022-12-31T01:10:32.186Z,1012.93
2022-12-31T01:11:04.319Z,1012.93
2022-12-31T01:11:36.796Z,1012.93
2022-12-31T01:12:08.947Z,1013.04
2022-12-31T01:12:36.821Z,1012.83
2022-12-31T01:12:56.443Z,1012.83
2022-12-31T01:13:28.568Z,1012.83
2022-12-31T01:14:00.470Z,1012.73
2022-12-31T01:14:32.267Z,1012.73
2022-12-31T01:15:06.092Z,1013.14
2022-12-31T01:15:37.083Z,1013.14
2022-12-31T01:16:09.071Z,1013.04
2022-12-31T01:16:37.162Z,1012.73
2022-12-31T01:16:56.801Z,1012.73
2022-12-31T01:17:28.608Z,1012.73
2022-12-31T01:18:00.513Z,1012.83
2022-12-31T01:18:32.269Z,1012.83
2022-12-31T01:19:04.244Z,1012.93
2022-12-31T01:19:36.808Z,1012.93
2022-12-31T01:20:09.555Z,1013.14
2022-12-31T01:20:37.542Z,1013.14
2022-12-31T01:20:56.688Z,1013.14
2022-12-31T01:21:28.610Z,1013.14
2022-12-31T01:22:00.753Z,1013.24
2022-12-31T01:22:32.542Z,1013.24
2022-12-31T01:23:04.306Z,1013.24
2022-12-31T01:23:36.787Z,1013.24
2022-12-31T01:24:08.834Z,1013.04
2022-12-31T01:24:36.828Z,1013.24
2022-12-31T01:24:56.454Z,1013.24
2022-12-31T01:25:29.029Z,1013.24
2022-12-31T01:26:00.550Z,1013.14
2022-12-31T01:26:32.316Z,1013.14
2022-12-31T01:27:04.303Z,1013.34
2022-12-31T01:27:36.615Z,1013.34
2022-12-31T01:28:08.951Z,1013.34
2022-12-31T01:28:36.854Z,1013.61
2022-12-31T01:28:56.849Z,1013.61
2022-12-31T01:29:28.645Z,1013.61
2022-12-31T01:30:01.938Z,1013.04
2022-12-31T01:30:32.330Z,1013.04
2022-12-31T01:31:04.483Z,1013.34
2022-12-31T01:31:36.905Z,1013.34
2022-12-31T01:32:08.938Z,1013.24
2022-12-31T01:32:37.061Z,1013.24
2022-12-31T01:32:56.383Z,1013.24
2022-12-31T01:33:28.660Z,1013.24
2022-12-31T01:34:00.780Z,1013.24
2022-12-31T01:34:32.262Z,1013.24
2022-12-31T01:35:05.301Z,1013.04
2022-12-31T01:35:36.649Z,1013.04
2022-12-31T01:36:08.793Z,1013.24
2022-12-31T01:36:37.225Z,1013.04
2022-12-31T01:36:56.607Z,1013.04
2022-12-31T01:37:28.615Z,1013.04
2022-12-31T01:38:00.661Z,1012.93
2022-12-31T01:38:32.379Z,1012.93
2022-12-31T01:39:05.158Z,1013.14
2022-12-31T01:39:36.897Z,1013.14
2022-12-31T01:40:09.339Z,1013.14
2022-12-31T01:40:36.907Z,1013.14
2022-12-31T01:40:57.193Z,1013.14
2022-12-31T01:41:28.681Z,1013.14
2022-12-31T01:42:00.518Z,1012.93
2022-12-31T01:42:32.647Z,1012.93
2022-12-31T01:43:04.358Z,1013.04
2022-12-31T01:43:37.529Z,1013.04
2022-12-31T01:44:08.961Z,1012.93
2022-12-31T01:44:36.783Z,1013.04
2022-12-31T01:44:56.438Z,1013.04
2022-12-31T01:45:29.609Z,1013.04
2022-12-31T01:46:01.694Z,1012.93
2022-12-31T01:46:32.248Z,1012.93
2022-12-31T01:47:04.400Z,1012.83
2022-12-31T01:47:36.602Z,1012.83
2022-12-31T01:48:09.078Z,1012.83
2022-12-31T01:48:36.895Z,1012.93
2022-12-31T01:48:56.367Z,1012.93
2022-12-31T01:49:28.617Z,1012.93
2022-12-31T01:50:01.572Z,1012.83
2022-12-31T01:50:32.557Z,1012.83
2022-12-31T01:51:04.334Z,1012.93
2022-12-31T01:51:36.569Z,1012.93
2022-12-31T01:52:09.358Z,1012.93
2022-12-31T01:52:36.878Z,1012.93
2022-12-31T01:52:57.406Z,1012.93
2022-12-31T01:53:28.669Z,1012.93
2022-12-31T01:54:00.809Z,1012.63
2022-12-31T01:54:32.394Z,1012.63
2022-12-31T01:55:05.454Z,1013.04
2022-12-31T01:55:37.092Z,1013.04
2022-12-31T01:56:09.266Z,1012.93
2022-12-31T01:56:37.149Z,1012.93
2022-12-31T01:56:56.370Z,1012.93
2022-12-31T01:57:28.891Z,1012.93
2022-12-31T01:58:00.767Z,1013.04
2022-12-31T01:58:32.366Z,1013.04
2022-12-31T01:59:04.932Z,1012.83
2022-12-31T01:59:37.025Z,1012.83
2022-12-31T02:00:10.300Z,1012.83
2022-12-31T02:00:37.059Z,1012.93
2022-12-31T02:00:56.883Z,1012.93
2022-12-31T02:01:28.746Z,1012.93
2022-12-31T02:02:00.578Z,1013.04
2022-12-31T02:02:32.307Z,1013.04
2022-12-31T02:03:04.334Z,1012.83
2022-12-31T02:03:36.525Z,1012.83
2022-12-31T02:04:09.006Z,1012.63
2022-12-31T02:04:37.013Z,1012.73
2022-12-31T02:04:56.607Z,1012.73
2022-12-31T02:05:29.089Z,1012.73
2022-12-31T02:06:00.686Z,1012.93
2022-12-31T02:06:32.396Z,1012.93
2022-12-31T02:07:04.319Z,1012.83
2022-12-31T02:07:36.613Z,1012.83
2022-12-31T02:08:09.322Z,1013.04
2022-12-31T02:08:41.842Z,1012.93
2022-12-31T02:08:56.401Z,1012.93
2022-12-31T02:09:28.599Z,1012.93
2022-12-31T02:10:01.019Z,1012.83
2022-12-31T02:10:32.626Z,1012.83
2022-12-31T02:11:04.369Z,1013.04
2022-12-31T02:11:36.666Z,1013.04
2022-12-31T02:12:09.253Z,1012.63
2022-12-31T02:12:36.865Z,1013.04
2022-12-31T02:12:56.320Z,1013.04
2022-12-31T02:13:28.636Z,1013.04
2022-12-31T02:14:00.693Z,1012.83
2022-12-31T02:14:32.715Z,1012.83
2022-12-31T02:15:07.004Z,1012.83
2022-12-31T02:15:38.504Z,1012.83
2022-12-31T02:16:08.845Z,1012.93
2022-12-31T02:16:36.935Z,1012.83
2022-12-31T02:16:56.494Z,1012.83
2022-12-31T02:17:28.653Z,1012.83
2022-12-31T02:18:00.473Z,1012.93
2022-12-31T02:18:32.221Z,1012.93
2022-12-31T02:19:04.290Z,1013.24
2022-12-31T02:19:36.953Z,1013.24
2022-12-31T02:20:09.674Z,1012.93
2022-12-31T02:20:36.833Z,1012.93
2022-12-31T02:20:56.602Z,1012.93
2022-12-31T02:21:28.623Z,1012.93
2022-12-31T02:22:00.439Z,1012.83
2022-12-31T02:22:32.296Z,1012.83
2022-12-31T02:23:04.595Z,1012.73
2022-12-31T02:23:36.599Z,1012.73
2022-12-31T02:24:08.820Z,1012.83
2022-12-31T02:24:36.900Z,1012.83
2022-12-31T02:24:56.414Z,1012.83
2022-12-31T02:25:29.111Z,1012.83
2022-12-31T02:26:00.851Z,1012.63
2022-12-31T02:26:32.232Z,1012.63
2022-12-31T02:27:04.300Z,1012.63
2022-12-31T02:27:36.929Z,1012.63
2022-12-31T02:28:08.862Z,1012.83
2022-12-31T02:28:36.904Z,1012.73
2022-12-31T02:28:56.449Z,1012.73
2022-12-31T02:29:28.645Z,1012.73
2022-12-31T02:30:01.736Z,1013.04
2022-12-31T02:30:32.327Z,1013.04
2022-12-31T02:31:04.355Z,1012.63
2022-12-31T02:31:37.068Z,1012.63
2022-12-31T02:32:08.691Z,1012.93
2022-12-31T02:32:37.219Z,1012.93
2022-12-31T02:32:56.342Z,1012.93
2022-12-31T02:33:28.686Z,1012.93
2022-12-31T02:34:00.503Z,1012.83
2022-12-31T02:34:32.336Z,1012.83
2022-12-31T02:35:05.398Z,1012.83
2022-12-31T02:35:36.578Z,1012.83
2022-12-31T02:36:08.675Z,1012.73
2022-12-31T02:36:36.860Z,1012.73
2022-12-31T02:36:56.366Z,1012.73
2022-12-31T02:37:28.714Z,1012.73
2022-12-31T02:38:00.408Z,1012.73
2022-12-31T02:38:32.321Z,1012.73
2022-12-31T02:39:04.482Z,1012.83
2022-12-31T02:39:36.679Z,1012.83
2022-12-31T02:40:09.378Z,1012.63
2022-12-31T02:40:36.970Z,1012.73
2022-12-31T02:40:57.221Z,1012.73
2022-12-31T02:41:28.576Z,1012.73
2022-12-31T02:42:00.648Z,1012.83
2022-12-31T02:42:32.331Z,1012.83
2022-12-31T02:43:04.336Z,1012.83
2022-12-31T02:43:36.583Z,1012.83
2022-12-31T02:44:08.792Z,1012.73
2022-12-31T02:44:36.849Z,1012.83
2022-12-31T02:44:56.366Z,1012.83
2022-12-31T02:45:29.515Z,1012.83
2022-12-31T02:46:00.488Z,1012.93
2022-12-31T02:46:32.485Z,1012.93
2022-12-31T02:47:04.341Z,1012.83
2022-12-31T02:47:36.535Z,1012.83
2022-12-31T02:48:08.836Z,1012.73
2022-12-31T02:48:36.948Z,1012.83
2022-12-31T02:48:56.466Z,1012.83
2022-12-31T02:49:28.670Z,1012.83
2022-12-31T02:50:00.915Z,1012.83
2022-12-31T02:50:32.307Z,1012.83
2022-12-31T02:51:04.314Z,1012.73
2022-12-31T02:51:36.604Z,1012.73
2022-12-31T02:52:08.840Z,1012.63
2022-12-31T02:52:36.900Z,1012.73
2022-12-31T02:52:56.524Z,1012.73
2022-12-31T02:53:28.636Z,1012.73
2022-12-31T02:54:00.456Z,1012.63
2022-12-31T02:54:32.159Z,1012.63
2022-12-31T02:55:05.294Z,1012.53
2022-12-31T02:55:36.452Z,1012.53
2022-12-31T02:56:08.788Z,1012.73
2022-12-31T02:56:36.836Z,1012.43
2022-12-31T02:56:56.361Z,1012.43
2022-12-31T02:57:28.781Z,1012.43
2022-12-31T02:58:00.460Z,1012.43
2022-12-31T02:58:32.246Z,1012.43
2022-12-31T02:59:04.296Z,1012.43
2022-12-31T02:59:46.517Z,1012.33
2022-12-31T03:00:10.055Z,1012.33
2022-12-31T03:00:36.950Z,1012.43
2022-12-31T03:00:56.900Z,1012.43
2022-12-31T03:01:29.200Z,1012.43
2022-12-31T03:02:00.704Z,1012.63
2022-12-31T03:02:32.499Z,1012.63
2022-12-31T03:03:04.931Z,1012.63
2022-12-31T03:03:36.573Z,1012.63
2022-12-31T03:04:09.070Z,1012.33
2022-12-31T03:04:36.849Z,1012.43
2022-12-31T03:04:56.737Z,1012.43
2022-12-31T03:05:29.055Z,1012.43
2022-12-31T03:06:00.499Z,1012.53
2022-12-31T03:06:32.431Z,1012.53
2022-12-31T03:07:04.360Z,1012.73
2022-12-31T03:07:36.884Z,1012.73
2022-12-31T03:08:08.863Z,1012.83
2022-12-31T03:08:37.186Z,1012.63
2022-12-31T03:08:56.409Z,1012.63
2022-12-31T03:09:28.676Z,1012.63
2022-12-31T03:10:01.102Z,1012.53
2022-12-31T03:10:32.642Z,1012.53
2022-12-31T03:11:04.253Z,1012.53
2022-12-31T03:11:36.476Z,1012.53
2022-12-31T03:12:08.863Z,1012.53
2022-12-31T03:12:37.044Z,1012.53
2022-12-31T03:12:56.430Z,1012.53
2022-12-31T03:13:28.645Z,1012.53
2022-12-31T03:14:00.429Z,1012.63
2022-12-31T03:14:32.216Z,1012.63
2022-12-31T03:15:06.115Z,1012.33
2022-12-31T03:15:36.778Z,1012.33
2022-12-31T03:16:09.170Z,1012.53
2022-12-31T03:16:37.194Z,1012.63
2022-12-31T03:16:56.747Z,1012.63
2022-12-31T03:17:28.875Z,1012.63
2022-12-31T03:18:06.059Z,1012.43
2022-12-31T03:18:32.390Z,1012.43
2022-12-31T03:19:05.020Z,1012.33
2022-12-31T03:19:37.470Z,1012.33
2022-12-31T03:20:09.447Z,1012.73
2022-12-31T03:20:37.791Z,1012.53
2022-12-31T03:20:56.738Z,1012.53
2022-12-31T03:21:28.886Z,1012.53
2022-12-31T03:22:00.418Z,1012.63
2022-12-31T03:22:32.284Z,1012.63
2022-12-31T03:23:04.387Z,1012.73
2022-12-31T03:23:36.671Z,1012.73
2022-12-31T03:24:09.303Z,1012.63
2022-12-31T03:24:36.846Z,1012.53
2022-12-31T03:24:56.371Z,1012.53
2022-12-31T03:25:29.143Z,1012.53
2022-12-31T03:26:00.482Z,1012.63
2022-12-31T03:26:32.348Z,1012.63
2022-12-31T03:27:04.537Z,1012.63
2022-12-31T03:27:36.495Z,1012.63
2022-12-31T03:28:08.976Z,1012.53
2022-12-31T03:28:36.988Z,1012.43
2022-12-31T03:28:56.803Z,1012.43
2022-12-31T03:29:28.610Z,1012.43
2022-12-31T03:30:01.824Z,1012.43
2022-12-31T03:30:32.426Z,1012.43
2022-12-31T03:31:04.473Z,1012.53
2022-12-31T03:31:36.934Z,1012.53
2022-12-31T03:32:08.805Z,1012.43
2022-12-31T03:32:37.027Z,1012.33
2022-12-31T03:32:56.456Z,1012.33
2022-12-31T03:33:28.703Z,1012.33
2022-12-31T03:34:00.550Z,1012.33
2022-12-31T03:34:32.292Z,1012.33
2022-12-31T03:35:05.502Z,1012.43
2022-12-31T03:35:37.094Z,1012.43
2022-12-31T03:36:08.857Z,1012.33
2022-12-31T03:36:36.989Z,1012.53
2022-12-31T03:36:56.384Z,1012.53
2022-12-31T03:37:29.906Z,1012.53
2022-12-31T03:38:00.505Z,1012.22
2022-12-31T03:38:32.227Z,1012.22
2022-12-31T03:39:04.513Z,1012.33
2022-12-31T03:39:36.439Z,1012.33
2022-12-31T03:40:09.424Z,1012.12
2022-12-31T03:40:36.845Z,1012.22
2022-12-31T03:40:57.021Z,1012.22
2022-12-31T03:41:28.725Z,1012.22
2022-12-31T03:42:00.476Z,1012.12
2022-12-31T03:42:32.258Z,1012.12
2022-12-31T03:43:04.371Z,1012.22
2022-12-31T03:43:36.640Z,1012.22
2022-12-31T03:44:08.899Z,1012.22
2022-12-31T03:44:36.912Z,1012.22
2022-12-31T03:44:56.451Z,1012.22
2022-12-31T03:45:29.974Z,1012.22
2022-12-31T03:46:00.591Z,1012.12
2022-12-31T03:46:32.318Z,1012.12
2022-12-31T03:47:04.317Z,1012.22
2022-12-31T03:47:36.746Z,1012.22
2022-12-31T03:48:10.098Z,1012.22
2022-12-31T03:48:36.856Z,1012.33
2022-12-31T03:48:56.939Z,1012.33
2022-12-31T03:49:28.750Z,1012.33
2022-12-31T03:50:01.120Z,1011.92
2022-12-31T03:50:32.329Z,1011.92
2022-12-31T03:51:04.575Z,1012.33
2022-12-31T03:51:36.544Z,1012.33
2022-12-31T03:52:09.290Z,1012.33
2022-12-31T03:52:36.824Z,1012.22
2022-12-31T03:52:56.538Z,1012.22
2022-12-31T03:53:28.810Z,1012.22
2022-12-31T03:54:00.476Z,1012.12
2022-12-31T03:54:32.289Z,1012.12
2022-12-31T03:55:05.273Z,1012.22
2022-12-31T03:55:36.491Z,1012.22
2022-12-31T03:56:08.769Z,1012.22
2022-12-31T03:56:36.772Z,1012.12
2022-12-31T03:57:00.056Z,1012.12
2022-12-31T03:57:28.622Z,1012.12
2022-12-31T03:58:00.500Z,1012.22
2022-12-31T03:58:32.390Z,1012.22
2022-12-31T03:59:04.475Z,1012.33
2022-12-31T03:59:36.831Z,1012.33
2022-12-31T04:00:10.341Z,1012.22
2022-12-31T04:00:36.999Z,1012.22
2022-12-31T04:00:57.112Z,1012.22
2022-12-31T04:01:28.869Z,1012.22
2022-12-31T04:02:00.708Z,1012.33
2022-12-31T04:02:32.385Z,1012.33
2022-12-31T04:03:04.633Z,1012.43
2022-12-31T04:03:36.511Z,1012.43
2022-12-31T04:04:08.905Z,1012.53
2022-12-31T04:04:36.902Z,1012.12
2022-12-31T04:04:57.621Z,1012.12
2022-12-31T04:05:29.069Z,1012.12
2022-12-31T04:06:00.664Z,1012.43
2022-12-31T04:06:32.251Z,1012.43
2022-12-31T04:07:04.259Z,1012.22
2022-12-31T04:07:36.868Z,1012.22
2022-12-31T04:08:08.960Z,1012.22
2022-12-31T04:08:36.936Z,1012.53
2022-12-31T04:08:56.331Z,1012.53
2022-12-31T04:09:29.792Z,1012.53
2022-12-31T04:10:01.557Z,1012.43
2022-12-31T04:10:32.407Z,1012.43
2022-12-31T04:11:04.345Z,1012.12
2022-12-31T04:11:36.544Z,1012.12
2022-12-31T04:12:08.828Z,1012.22
2022-12-31T04:12:36.982Z,1012.22
2022-12-31T04:12:56.485Z,1012.22
2022-12-31T04:13:28.780Z,1012.22
2022-12-31T04:14:00.907Z,1012.33
2022-12-31T04:14:32.232Z,1012.33
2022-12-31T04:15:06.367Z,1012.02
2022-12-31T04:15:36.598Z,1012.02
2022-12-31T04:16:08.838Z,1012.73
2022-12-31T04:16:37.193Z,1012.43
2022-12-31T04:16:56.622Z,1012.43
2022-12-31T04:17:28.666Z,1012.43
2022-12-31T04:18:00.424Z,1012.43
2022-12-31T04:18:32.532Z,1012.43
2022-12-31T04:19:04.734Z,1012.43
2022-12-31T04:19:36.727Z,1012.43
2022-12-31T04:20:09.482Z,1012.43
2022-12-31T04:20:37.629Z,1012.43
2022-12-31T04:20:56.816Z,1012.43
2022-12-31T04:21:34.631Z,1012.43
2022-12-31T04:22:01.714Z,1012.63
2022-12-31T04:22:32.331Z,1012.63
2022-12-31T04:23:05.675Z,1012.73
2022-12-31T04:23:36.434Z,1012.73
2022-12-31T04:24:08.956Z,1012.63
2022-12-31T04:24:36.999Z,1012.53
2022-12-31T04:24:56.527Z,1012.53
2022-12-31T04:25:29.208Z,1012.53
2022-12-31T04:26:00.628Z,1012.73
2022-12-31T04:26:32.250Z,1012.73
2022-12-31T04:27:07.805Z,1012.83
2022-12-31T04:27:37.099Z,1012.83
2022-12-31T04:28:09.559Z,1012.63
2022-12-31T04:28:36.834Z,1012.63
2022-12-31T04:28:56.857Z,1012.63
2022-12-31T04:29:28.668Z,1012.63
2022-12-31T04:30:01.872Z,1012.73
2022-12-31T04:30:33.957Z,1012.73
2022-12-31T04:31:04.466Z,1012.83
2022-12-31T04:31:36.641Z,1012.83
2022-12-31T04:32:09.408Z,1012.73
2022-12-31T04:32:36.875Z,1012.53
2022-12-31T04:32:56.533Z,1012.53
2022-12-31T04:33:28.780Z,1012.53
2022-12-31T04:34:00.666Z,1012.63
2022-12-31T04:34:32.258Z,1012.63
2022-12-31T04:35:05.277Z,1012.63
2022-12-31T04:35:36.720Z,1012.63
2022-12-31T04:36:09.043Z,1012.93
2022-12-31T04:36:36.944Z,1012.83
2022-12-31T04:36:56.872Z,1012.83
2022-12-31T04:37:28.879Z,1012.83
2022-12-31T04:38:00.780Z,1012.63
2022-12-31T04:38:32.454Z,1012.63
2022-12-31T04:39:04.546Z,1012.83
2022-12-31T04:39:38.187Z,1012.83
2022-12-31T04:40:09.815Z,1012.83
2022-12-31T04:40:37.245Z,1012.63
2022-12-31T04:40:57.831Z,1012.63
2022-12-31T04:41:28.885Z,1012.63
2022-12-31T04:42:02.058Z,1012.73
2022-12-31T04:42:32.505Z,1012.73
2022-12-31T04:43:04.601Z,1012.83
2022-12-31T04:43:36.563Z,1012.83
2022-12-31T04:44:09.994Z,1012.63
2022-12-31T04:44:37.143Z,1012.73
2022-12-31T04:44:56.862Z,1012.73
2022-12-31T04:45:30.672Z,1012.73
2022-12-31T04:46:02.312Z,1012.73
2022-12-31T04:46:33.698Z,1012.73
2022-12-31T04:47:04.810Z,1012.73
2022-12-31T04:47:36.713Z,1012.73
2022-12-31T04:48:15.040Z,1012.53
2022-12-31T04:48:41.079Z,1012.73
2022-12-31T04:48:59.404Z,1012.73
2022-12-31T04:49:30.666Z,1012.73
2022-12-31T04:50:11.564Z,1012.43
2022-12-31T04:50:35.197Z,1012.43
2022-12-31T04:51:11.408Z,1012.63
2022-12-31T04:51:42.531Z,1012.63
2022-12-31T04:52:14.174Z,1012.53
2022-12-31T04:52:43.938Z,1012.43
2022-12-31T04:53:02.519Z,1012.43
2022-12-31T04:53:31.014Z,1012.43
2022-12-31T04:54:04.295Z,1012.63
2022-12-31T04:54:35.059Z,1012.63
2022-12-31T04:55:11.025Z,1012.43
2022-12-31T04:55:42.360Z,1012.43
2022-12-31T04:56:12.576Z,1012.53
2022-12-31T04:56:46.604Z,1012.73
2022-12-31T04:57:01.297Z,1012.73
2022-12-31T04:57:36.497Z,1012.73
2022-12-31T04:58:06.789Z,1012.93
2022-12-31T04:58:36.600Z,1012.93
2022-12-31T04:59:07.572Z,1012.63
2022-12-31T04:59:44.728Z,1012.63
2022-12-31T05:00:18.875Z,1012.53
2022-12-31T05:00:38.465Z,1012.63
2022-12-31T05:01:00.434Z,1012.63
2022-12-31T05:01:31.862Z,1012.63
2022-12-31T05:02:08.130Z,1012.63
2022-12-31T05:02:34.113Z,1012.63
2022-12-31T05:03:09.153Z,1012.53
2022-12-31T05:03:37.918Z,1012.53
2022-12-31T05:04:15.064Z,1012.63
2022-12-31T05:04:38.902Z,1012.43
2022-12-31T05:05:00.047Z,1012.43
2022-12-31T05:05:32.299Z,1012.43
2022-12-31T05:06:01.919Z,1012.53
2022-12-31T05:06:34.295Z,1012.53
2022-12-31T05:07:07.445Z,1012.93
2022-12-31T05:07:39.829Z,1012.93
2022-12-31T05:08:11.454Z,1012.73
2022-12-31T05:08:39.622Z,1012.73
2022-12-31T05:08:58.933Z,1012.73
2022-12-31T05:09:31.537Z,1012.73
2022-12-31T05:10:04.846Z,1012.53
2022-12-31T05:10:39.576Z,1012.53
2022-12-31T05:11:07.242Z,1012.83
2022-12-31T05:11:39.448Z,1012.83
2022-12-31T05:12:10.740Z,1012.73
2022-12-31T05:12:41.927Z,1012.63
2022-12-31T05:13:02.855Z,1012.63
2022-12-31T05:13:33.597Z,1012.63
2022-12-31T05:14:02.988Z,1012.83
2022-12-31T05:14:34.357Z,1012.83
2022-12-31T05:15:11.874Z,1012.73
2022-12-31T05:15:45.743Z,1012.73
2022-12-31T05:16:13.760Z,1012.83
2022-12-31T05:16:39.973Z,1012.83
2022-12-31T05:17:00.604Z,1012.83
2022-12-31T05:17:31.103Z,1012.83
2022-12-31T05:18:02.115Z,1012.63
2022-12-31T05:18:36.891Z,1012.63
2022-12-31T05:19:05.747Z,1012.83
2022-12-31T05:19:39.227Z,1012.83
2022-12-31T05:20:19.428Z,1012.63
2022-12-31T05:20:50.400Z,1012.63
2022-12-31T05:21:06.162Z,1012.63
2022-12-31T05:21:32.571Z,1012.63
2022-12-31T05:22:05.014Z,1012.63
2022-12-31T05:22:36.735Z,1012.63
2022-12-31T05:23:14.186Z,1012.73
2022-12-31T05:23:41.872Z,1012.73
2022-12-31T05:24:12.150Z,1012.63
2022-12-31T05:24:39.118Z,1012.73
2022-12-31T05:24:58.270Z,1012.73
2022-12-31T05:25:32.121Z,1012.73
2022-12-31T05:26:03.207Z,1012.73
2022-12-31T05:26:34.679Z,1012.73
2022-12-31T05:27:06.378Z,1012.63
2022-12-31T05:27:38.996Z,1012.63
2022-12-31T05:28:11.350Z,1012.73
2022-12-31T05:28:41.095Z,1012.53
2022-12-31T05:28:58.886Z,1012.53
2022-12-31T05:29:30.560Z,1012.53
2022-12-31T05:30:10.169Z,1012.73
2022-12-31T05:30:38.125Z,1012.73
2022-12-31T05:31:06.922Z,1012.33
2022-12-31T05:31:39.283Z,1012.33
2022-12-31T05:32:11.246Z,1012.43
2022-12-31T05:32:38.950Z,1012.73
2022-12-31T05:32:59.514Z,1012.73
2022-12-31T05:33:30.902Z,1012.73
2022-12-31T05:34:01.764Z,1012.63
2022-12-31T05:34:33.733Z,1012.63
2022-12-31T05:35:13.731Z,1012.73
2022-12-31T05:35:38.451Z,1012.73
2022-12-31T05:36:10.995Z,1012.73
2022-12-31T05:36:39.076Z,1012.73
2022-12-31T05:36:58.601Z,1012.73
2022-12-31T05:37:31.468Z,1012.73
2022-12-31T05:38:02.355Z,1012.93
2022-12-31T05:38:35.230Z,1012.93
2022-12-31T05:39:06.969Z,1012.73
2022-12-31T05:39:38.078Z,1012.73
2022-12-31T05:40:14.199Z,1012.63
2022-12-31T05:40:38.296Z,1012.73
2022-12-31T05:41:02.845Z,1012.73
2022-12-31T05:41:31.240Z,1012.73
2022-12-31T05:42:04.992Z,1012.63
2022-12-31T05:42:34.713Z,1012.63
2022-12-31T05:43:07.458Z,1012.93
2022-12-31T05:43:40.359Z,1012.93
2022-12-31T05:44:10.954Z,1012.73
2022-12-31T05:44:42.605Z,1012.73
2022-12-31T05:45:00.063Z,1012.73
2022-12-31T05:45:33.636Z,1012.73
2022-12-31T05:46:03.654Z,1012.83
2022-12-31T05:46:35.894Z,1012.83
2022-12-31T05:47:11.654Z,1012.83
2022-12-31T05:47:38.549Z,1012.83
2022-12-31T05:48:10.345Z,1012.83
2022-12-31T05:48:43.257Z,1012.53
2022-12-31T05:48:59.201Z,1012.53
2022-12-31T05:49:30.753Z,1012.53
2022-12-31T05:50:10.764Z,1012.83
2022-12-31T05:50:36.281Z,1012.83
2022-12-31T05:51:05.913Z,1012.73
2022-12-31T05:51:40.073Z,1012.73
2022-12-31T05:52:11.467Z,1012.73
2022-12-31T05:52:41.540Z,1012.73
2022-12-31T05:52:57.984Z,1012.73
2022-12-31T05:53:30.973Z,1012.73
2022-12-31T05:54:03.820Z,1012.73
2022-12-31T05:54:34.880Z,1012.73
2022-12-31T05:55:12.830Z,1012.83
2022-12-31T05:55:39.823Z,1012.83
2022-12-31T05:56:11.974Z,1013.04
2022-12-31T05:56:42.106Z,1012.83
2022-12-31T05:56:58.731Z,1012.83
2022-12-31T05:57:32.651Z,1012.83
2022-12-31T05:58:02.424Z,1012.73
2022-12-31T05:58:34.207Z,1012.73
2022-12-31T05:59:06.843Z,1012.83
2022-12-31T05:59:39.569Z,1012.83
2022-12-31T06:00:16.347Z,1012.93
2022-12-31T06:00:39.541Z,1013.04
2022-12-31T06:01:02.255Z,1013.04
2022-12-31T06:01:31.241Z,1013.04
2022-12-31T06:02:05.368Z,1012.83
2022-12-31T06:02:35.575Z,1012.83
2022-12-31T06:03:07.145Z,1013.24